createdAt,value
2023-03-26T00:01:21.658Z,8.04
2023-03-26T00:03:53.508Z,8.03
2023-03-26T00:06:24.890Z,8.19
2023-03-26T00:08:52.673Z,8.19
2023-03-26T00:11:21.996Z,8.21
2023-03-26T00:13:49.139Z,8.24
2023-03-26T00:16:18.787Z,8.29
2023-03-26T00:18:46.289Z,8.19
2023-03-26T00:21:16.131Z,8.29
2023-03-26T00:23:44.022Z,8.34
2023-03-26T00:26:11.145Z,8.27
2023-03-26T00:28:40.449Z,8.27
2023-03-26T00:31:10.559Z,8.31
2023-03-26T00:33:38.347Z,8.42
2023-03-26T00:36:10.040Z,8.38
2023-03-26T00:38:39.082Z,8.40
2023-03-26T00:41:18.037Z,8.36
2023-03-26T00:43:48.726Z,8.34
2023-03-26T00:46:15.895Z,8.31
2023-03-26T00:48:45.861Z,8.34
2023-03-26T00:51:17.804Z,8.35
2023-03-26T00:53:47.002Z,8.42
2023-03-26T00:56:14.042Z,8.39
2023-03-26T00:58:40.817Z,8.32
2023-03-26T01:01:13.587Z,8.42
2023-03-26T01:03:45.706Z,8.48
2023-03-26T01:06:35.724Z,8.43
2023-03-26T01:09:12.713Z,8.49
2023-03-26T01:11:39.750Z,8.49
2023-03-26T01:14:11.097Z,8.46
2023-03-26T01:16:52.809Z,8.48
2023-03-26T01:20:12.546Z,8.39
2023-03-26T01:22:45.811Z,8.47
2023-03-26T01:25:12.466Z,8.44
2023-03-26T01:27:50.267Z,8.43
2023-03-26T01:30:27.515Z,8.44
2023-03-26T01:33:20.528Z,8.44
2023-03-26T01:35:58.879Z,8.47
2023-03-26T01:38:49.993Z,8.45
2023-03-26T01:41:24.694Z,8.42
2023-03-26T01:44:04.598Z,8.44
2023-03-26T01:46:36.376Z,8.41
2023-03-26T01:49:05.027Z,8.48
2023-03-26T01:51:34.600Z,8.43
2023-03-26T01:54:04.169Z,8.46
2023-03-26T01:57:18.514Z,8.44
2023-03-26T02:00:24.910Z,8.37
2023-03-26T02:03:41.085Z,8.36
2023-03-26T02:06:18.938Z,8.43
2023-03-26T02:08:59.362Z,8.42
2023-03-26T02:11:33.671Z,8.35
2023-03-26T02:14:03.246Z,8.38
2023-03-26T02:16:29.888Z,8.41
2023-03-26T02:18:59.211Z,8.48
2023-03-26T02:21:28.187Z,8.48
2023-03-26T02:24:03.514Z,8.52
2023-03-26T02:26:32.014Z,8.35
2023-03-26T02:28:59.381Z,8.38
2023-03-26T02:31:30.222Z,8.40
2023-03-26T02:33:57.371Z,8.34
2023-03-26T02:36:29.951Z,8.38
2023-03-26T02:38:58.064Z,8.26
2023-03-26T02:41:24.959Z,8.28
2023-03-26T02:43:51.615Z,8.31
2023-03-26T02:46:18.301Z,8.33
2023-03-26T02:48:45.022Z,8.28
2023-03-26T02:51:11.635Z,8.28
2023-03-26T02:53:39.530Z,8.25
2023-03-26T02:56:06.934Z,8.24
2023-03-26T02:58:33.602Z,8.29
2023-03-26T03:01:03.216Z,8.34
2023-03-26T03:03:30.247Z,8.26
2023-03-26T03:05:57.826Z,8.37
2023-03-26T03:08:28.112Z,8.35
2023-03-26T03:11:09.746Z,8.27
2023-03-26T03:13:36.505Z,8.27
2023-03-26T03:16:03.543Z,8.35
2023-03-26T03:18:30.200Z,8.31
2023-03-26T03:20:57.031Z,8.34
2023-03-26T03:23:25.875Z,8.32
2023-03-26T03:25:53.142Z,8.33
2023-03-26T03:28:20.177Z,8.26
2023-03-26T03:30:47.147Z,8.22
2023-03-26T03:33:16.239Z,8.29
2023-03-26T03:35:42.891Z,8.28
2023-03-26T03:38:10.738Z,8.25
2023-03-26T03:40:37.371Z,8.31
2023-03-26T03:43:03.981Z,8.25
2023-03-26T03:45:30.598Z,8.32
2023-03-26T03:47:57.259Z,8.42
2023-03-26T03:50:24.146Z,8.35
2023-03-26T03:52:50.788Z,8.30
2023-03-26T03:55:17.418Z,8.22
2023-03-26T03:57:44.708Z,8.21
2023-03-26T04:00:13.022Z,8.11
2023-03-26T04:02:43.187Z,8.06
2023-03-26T04:05:11.636Z,7.88
2023-03-26T04:07:38.789Z,7.86
2023-03-26T04:10:07.168Z,7.82
2023-03-26T04:12:33.810Z,7.87
2023-03-26T04:15:00.447Z,7.88
2023-03-26T04:17:27.260Z,7.85
2023-03-26T04:19:54.896Z,7.89
2023-03-26T04:22:22.160Z,7.88
2023-03-26T04:24:49.783Z,7.89
2023-03-26T04:27:20.233Z,7.86
2023-03-26T04:29:49.767Z,7.81
2023-03-26T04:32:26.631Z,7.81
2023-03-26T04:34:53.677Z,7.84
2023-03-26T04:37:34.578Z,7.89
2023-03-26T04:40:10.855Z,7.86
2023-03-26T04:42:41.616Z,7.91
2023-03-26T04:45:09.269Z,7.90
2023-03-26T04:47:37.172Z,7.88
2023-03-26T04:50:09.340Z,7.91
2023-03-26T04:52:36.653Z,8.01
2023-03-26T04:55:04.475Z,8.00
2023-03-26T04:57:46.187Z,7.94
2023-03-26T05:00:16.620Z,7.84
2023-03-26T05:02:43.720Z,7.74
2023-03-26T05:05:12.073Z,7.72
2023-03-26T05:07:38.709Z,7.74
2023-03-26T05:10:06.230Z,7.70
2023-03-26T05:12:32.933Z,7.67
2023-03-26T05:14:59.567Z,7.63
2023-03-26T05:17:26.723Z,7.64
2023-03-26T05:19:53.325Z,7.61
2023-03-26T05:22:19.892Z,7.61
2023-03-26T05:24:46.479Z,7.58
2023-03-26T05:27:15.170Z,7.56
2023-03-26T05:29:41.888Z,7.54
2023-03-26T05:32:09.731Z,7.61
2023-03-26T05:34:36.430Z,7.61
2023-03-26T05:37:04.495Z,7.63
2023-03-26T05:39:31.106Z,7.58
2023-03-26T05:41:57.806Z,7.54
2023-03-26T05:44:24.487Z,7.51
2023-03-26T05:46:51.259Z,7.51
2023-03-26T05:49:17.908Z,7.60
2023-03-26T05:51:44.493Z,7.62
2023-03-26T05:54:11.197Z,7.60
2023-03-26T05:56:38.155Z,7.63
2023-03-26T05:59:04.762Z,7.72
2023-03-26T06:01:31.409Z,7.84
2023-03-26T06:03:58.186Z,8.00
2023-03-26T06:06:24.906Z,8.09
2023-03-26T06:09:01.474Z,8.29
2023-03-26T06:11:30.800Z,8.30
2023-03-26T06:13:57.530Z,8.40
2023-03-26T06:16:26.523Z,8.39
2023-03-26T06:18:56.736Z,8.47
2023-03-26T06:21:25.584Z,8.47
2023-03-26T06:23:52.455Z,8.46
2023-03-26T06:26:19.178Z,8.42
2023-03-26T06:28:45.784Z,8.42
2023-03-26T06:31:12.636Z,8.58
2023-03-26T06:33:39.359Z,8.65
2023-03-26T06:36:06.297Z,8.78
2023-03-26T06:38:32.964Z,8.88
2023-03-26T06:41:06.319Z,8.91
2023-03-26T06:43:33.837Z,9.00
2023-03-26T06:46:01.678Z,9.16
2023-03-26T06:48:28.462Z,9.28
2023-03-26T06:50:55.425Z,9.36
2023-03-26T06:53:22.294Z,9.27
2023-03-26T06:55:49.124Z,9.23
2023-03-26T06:58:16.804Z,9.21
2023-03-26T07:00:43.558Z,9.16
2023-03-26T07:03:11.485Z,9.09
2023-03-26T07:05:38.843Z,9.13
2023-03-26T07:08:05.806Z,9.20
2023-03-26T07:10:32.808Z,9.31
2023-03-26T07:13:01.481Z,9.45
2023-03-26T07:15:30.902Z,9.49
2023-03-26T07:17:57.673Z,9.59
2023-03-26T07:20:24.436Z,9.58
2023-03-26T07:22:51.774Z,9.60
2023-03-26T07:25:19.239Z,9.67
2023-03-26T07:28:26.792Z,9.72
2023-03-26T07:31:00.933Z,9.73
2023-03-26T07:33:56.425Z,9.90
2023-03-26T07:36:47.185Z,10.11
2023-03-26T07:39:42.804Z,10.19
2023-03-26T07:42:24.649Z,10.17
2023-03-26T07:45:26.303Z,10.28
2023-03-26T07:47:53.849Z,10.25
2023-03-26T07:50:22.977Z,10.29
2023-03-26T07:52:50.272Z,10.34
2023-03-26T07:55:17.912Z,10.40
2023-03-26T07:58:30.675Z,10.49
2023-03-26T08:01:07.347Z,10.55
2023-03-26T08:04:27.869Z,10.82
2023-03-26T08:07:03.927Z,10.79
2023-03-26T08:09:42.498Z,10.65
2023-03-26T08:12:55.095Z,10.95
2023-03-26T08:16:01.157Z,11.09
2023-03-26T08:18:51.936Z,11.33
2023-03-26T08:21:28.260Z,11.47
2023-03-26T08:24:43.680Z,11.59
2023-03-26T08:27:25.843Z,11.71
2023-03-26T08:30:02.296Z,11.81
2023-03-26T08:32:29.250Z,11.68
2023-03-26T08:34:57.592Z,11.66
2023-03-26T08:37:24.529Z,11.69
2023-03-26T08:39:51.193Z,11.90
2023-03-26T08:43:13.273Z,11.77
2023-03-26T08:46:42.413Z,12.03
2023-03-26T08:49:38.668Z,11.98
2023-03-26T08:52:21.513Z,12.11
2023-03-26T08:55:36.558Z,12.07
2023-03-26T08:58:51.865Z,12.10
2023-03-26T09:01:36.007Z,12.18
2023-03-26T09:04:26.125Z,12.26
2023-03-26T09:30:10.048Z,12.56
2023-03-26T09:33:23.090Z,12.79
2023-03-26T09:36:20.231Z,12.97
2023-03-26T09:39:15.691Z,13.16
2023-03-26T09:42:03.996Z,13.09
2023-03-26T09:44:42.620Z,13.06
2023-03-26T09:47:41.436Z,13.07
2023-03-26T09:50:45.161Z,13.15
2023-03-26T09:53:34.621Z,13.29
2023-03-26T09:56:41.575Z,13.28
2023-03-26T09:59:11.543Z,13.05
2023-03-26T10:05:52.604Z,13.26
2023-03-26T10:08:49.768Z,13.46
2023-03-26T10:12:01.981Z,13.58
2023-03-26T10:15:22.825Z,13.56
2023-03-26T10:18:48.796Z,13.41
2023-03-26T10:21:37.605Z,13.35
2023-03-26T10:24:29.573Z,13.39
2023-03-26T10:27:54.584Z,13.44
2023-03-26T10:31:06.220Z,13.63
2023-03-26T10:34:32.244Z,13.76
2023-03-26T10:38:00.183Z,13.71
2023-03-26T10:41:00.892Z,13.73
2023-03-26T11:12:28.334Z,14.45
2023-03-26T11:15:22.252Z,14.40
2023-03-26T11:18:05.018Z,14.37
2023-03-26T11:20:41.670Z,14.24
2023-03-26T11:23:40.609Z,14.32
2023-03-26T11:26:44.741Z,14.32
2023-03-26T11:29:31.040Z,14.55
2023-03-26T11:32:12.669Z,14.62
2023-03-26T11:34:49.483Z,14.64
2023-03-26T11:37:29.535Z,14.48
2023-03-26T11:39:58.773Z,14.60
2023-03-26T11:42:26.103Z,14.50
2023-03-26T11:45:05.704Z,14.25
2023-03-26T11:47:38.643Z,14.08
2023-03-26T11:50:08.312Z,14.10
2023-03-26T11:52:36.033Z,14.11
2023-03-26T11:55:04.268Z,14.21
2023-03-26T11:57:35.295Z,14.27
2023-03-26T12:00:16.614Z,14.17
2023-03-26T12:02:45.290Z,14.11
2023-03-26T12:05:24.913Z,13.75
2023-03-26T12:07:57.349Z,13.42
2023-03-26T12:10:28.808Z,12.99
2023-03-26T12:12:59.036Z,12.90
2023-03-26T12:15:26.262Z,12.83
2023-03-26T12:17:56.456Z,12.70
2023-03-26T12:20:25.855Z,12.84
2023-03-26T12:22:59.806Z,12.64
2023-03-26T12:25:28.792Z,12.67
2023-03-26T12:28:19.071Z,12.86
2023-03-26T12:30:58.731Z,12.81
2023-03-26T12:33:35.514Z,12.87
2023-03-26T12:36:23.344Z,13.02
2023-03-26T12:39:16.919Z,12.91
2023-03-26T12:44:42.291Z,12.88
2023-03-26T12:44:59.944Z,12.65
2023-03-26T12:48:00.342Z,12.56
2023-03-26T12:50:34.668Z,12.64
2023-03-26T12:53:53.290Z,12.68
2023-03-26T12:56:36.445Z,12.85
2023-03-26T12:59:39.696Z,12.83
2023-03-26T13:02:59.129Z,12.80
2023-03-26T13:06:13.925Z,12.75
2023-03-26T13:09:38.883Z,12.57
2023-03-26T13:12:21.464Z,12.64
2023-03-26T13:15:13.030Z,12.63
2023-03-26T13:18:18.159Z,12.62
2023-03-26T13:20:55.821Z,12.69
2023-03-26T13:23:54.819Z,12.72
2023-03-26T13:26:55.871Z,12.50
2023-03-26T13:29:29.277Z,12.46
2023-03-26T13:32:18.672Z,12.42
2023-03-26T13:35:27.960Z,12.45
2023-03-26T13:37:59.768Z,12.35
2023-03-26T13:40:41.300Z,12.23
2023-03-26T13:43:30.920Z,12.17
2023-03-26T13:46:40.142Z,12.14
2023-03-26T13:49:15.390Z,11.97
2023-03-26T13:52:19.591Z,11.72
2023-03-26T13:54:53.522Z,11.64
2023-03-26T13:57:42.907Z,11.79
2023-03-26T14:00:21.772Z,11.91
2023-03-26T14:03:20.807Z,12.06
2023-03-26T14:05:51.491Z,12.07
2023-03-26T14:08:36.244Z,12.20
2023-03-26T14:11:11.655Z,12.22
2023-03-26T14:14:04.243Z,12.21
2023-03-26T14:16:38.208Z,12.35
2023-03-26T14:19:38.528Z,12.29
2023-03-26T14:22:55.763Z,12.27
2023-03-26T14:25:39.769Z,12.20
2023-03-26T14:28:24.985Z,12.19
2023-03-26T14:31:19.502Z,12.21
2023-03-26T14:33:49.617Z,11.98
2023-03-26T14:36:43.881Z,11.91
2023-03-26T14:39:42.191Z,11.48
2023-03-26T14:42:19.626Z,11.38
2023-03-26T14:45:09.147Z,11.18
2023-03-26T14:48:04.154Z,11.20
2023-03-26T14:50:47.722Z,11.28
2023-03-26T14:53:46.530Z,11.25
2023-03-26T14:56:44.599Z,11.36
2023-03-26T14:59:14.093Z,11.44
2023-03-26T15:01:47.286Z,11.46
2023-03-26T15:04:52.327Z,11.48
2023-03-26T15:07:52.645Z,11.24
2023-03-26T15:10:40.229Z,11.21
2023-03-26T15:13:12.709Z,11.25
2023-03-26T15:16:06.725Z,11.30
2023-03-26T15:18:47.982Z,11.44
2023-03-26T15:21:20.222Z,11.47
2023-03-26T15:24:02.590Z,11.34
2023-03-26T15:26:51.915Z,11.41
2023-03-26T15:29:34.064Z,11.43
2023-03-26T15:32:03.223Z,11.33
2023-03-26T15:34:54.681Z,11.29
2023-03-26T15:37:56.742Z,11.26
2023-03-26T15:40:54.634Z,11.23
2023-03-26T15:43:21.973Z,11.07
2023-03-26T15:46:12.735Z,11.17
2023-03-26T15:48:57.828Z,11.08
2023-03-26T15:51:30.425Z,11.02
2023-03-26T15:54:03.169Z,10.97
2023-03-26T15:57:03.360Z,10.98
2023-03-26T15:59:42.433Z,10.97
2023-03-26T16:02:39.347Z,10.94
2023-03-26T16:05:39.717Z,10.91
2023-03-26T16:08:09.308Z,10.83
2023-03-26T16:10:52.262Z,10.88
2023-03-26T16:13:34.276Z,10.80
2023-03-26T16:16:19.565Z,10.84
2023-03-26T16:19:24.267Z,10.79
2023-03-26T16:22:11.718Z,10.88
2023-03-26T16:24:44.503Z,10.86
2023-03-26T16:27:14.163Z,10.88
2023-03-26T16:30:15.307Z,10.86
2023-03-26T16:32:48.148Z,10.87
2023-03-26T16:35:14.706Z,10.82
2023-03-26T16:37:50.054Z,10.83
2023-03-26T16:40:16.755Z,10.80
2023-03-26T16:43:14.504Z,10.81
2023-03-26T16:45:58.116Z,10.76
2023-03-26T16:49:02.477Z,10.65
2023-03-26T16:51:44.193Z,10.64
2023-03-26T16:54:36.188Z,10.57
2023-03-26T16:57:27.084Z,10.56
2023-03-26T17:00:23.484Z,10.48
2023-03-26T17:03:14.893Z,10.45
2023-03-26T17:05:56.802Z,10.53
2023-03-26T17:08:53.368Z,10.55
2023-03-26T17:11:31.994Z,10.57
2023-03-26T17:14:19.634Z,10.51
2023-03-26T17:17:01.276Z,10.52
2023-03-26T17:19:48.105Z,10.48
2023-03-26T17:22:26.683Z,10.43
2023-03-26T17:24:59.401Z,10.43
2023-03-26T17:27:44.161Z,10.39
2023-03-26T17:30:33.926Z,10.38
2023-03-26T17:33:03.543Z,10.23
2023-03-26T17:35:47.703Z,10.21
2023-03-26T17:38:17.110Z,10.20
2023-03-26T17:41:05.318Z,10.18
2023-03-26T17:43:46.146Z,10.10
2023-03-26T17:46:33.244Z,9.97
2023-03-26T17:49:21.961Z,10.00
2023-03-26T17:51:58.141Z,10.04
2023-03-26T17:54:57.213Z,10.04
2023-03-26T17:57:40.160Z,9.94
2023-03-26T18:00:16.321Z,9.95
2023-03-26T18:02:50.532Z,9.84
2023-03-26T18:05:17.647Z,9.90
2023-03-26T18:08:15.012Z,9.88
2023-03-26T18:11:32.179Z,9.88
2023-03-26T18:14:35.182Z,9.85
2023-03-26T18:17:02.226Z,9.79
2023-03-26T18:19:29.644Z,9.82
2023-03-26T18:22:03.626Z,9.84
2023-03-26T18:24:36.498Z,9.79
2023-03-26T18:27:08.205Z,9.82
2023-03-26T18:29:36.420Z,9.78
2023-03-26T18:32:17.429Z,9.80
2023-03-26T18:34:52.497Z,9.77
2023-03-26T18:37:24.487Z,9.76
2023-03-26T18:40:20.190Z,9.70
2023-03-26T18:42:58.133Z,9.67
2023-03-26T18:45:43.420Z,9.69
2023-03-26T18:48:21.333Z,9.64
2023-03-26T18:51:01.111Z,9.70
2023-03-26T18:53:38.722Z,9.66
2023-03-26T18:56:36.006Z,9.68
2023-03-26T18:59:05.392Z,9.59
2023-03-26T19:01:35.305Z,9.60
2023-03-26T19:04:08.280Z,9.61
2023-03-26T19:06:44.792Z,9.62
2023-03-26T19:09:28.061Z,9.55
2023-03-26T19:11:57.620Z,9.48
2023-03-26T19:14:26.076Z,9.57
2023-03-26T19:16:58.029Z,9.54
2023-03-26T19:19:37.951Z,9.56
2023-03-26T19:22:07.009Z,9.55
2023-03-26T19:24:34.438Z,9.60
2023-03-26T19:27:01.286Z,9.54
2023-03-26T19:29:31.896Z,9.45
2023-03-26T19:32:20.159Z,9.36
2023-03-26T19:34:48.699Z,9.40
2023-03-26T19:37:26.838Z,9.35
2023-03-26T19:39:55.462Z,9.35
2023-03-26T19:42:27.588Z,9.32
2023-03-26T19:45:22.845Z,9.40
2023-03-26T19:48:03.626Z,9.43
2023-03-26T19:50:36.786Z,9.39
2023-03-26T19:53:25.422Z,9.40
2023-03-26T19:55:57.341Z,9.46
2023-03-26T19:58:27.607Z,9.46
2023-03-26T20:00:56.214Z,9.43
2023-03-26T20:03:47.442Z,9.50
2023-03-26T20:06:17.281Z,9.56
2023-03-26T20:08:44.474Z,9.46
2023-03-26T20:11:19.420Z,9.12
2023-03-26T20:13:46.772Z,8.99
2023-03-26T20:16:23.418Z,9.03
2023-03-26T20:18:50.756Z,9.09
2023-03-26T20:21:18.043Z,9.11
2023-03-26T20:23:44.828Z,9.07
2023-03-26T20:26:13.829Z,9.13
2023-03-26T20:28:47.488Z,9.13
2023-03-26T20:31:19.429Z,9.11
2023-03-26T20:33:47.907Z,9.13
2023-03-26T20:36:15.090Z,9.15
2023-03-26T20:39:01.200Z,9.01
2023-03-26T20:41:27.833Z,8.81
2023-03-26T20:43:54.418Z,8.80
2023-03-26T20:46:24.010Z,8.78
2023-03-26T20:48:58.051Z,8.77
2023-03-26T20:51:24.696Z,8.67
2023-03-26T20:53:51.327Z,8.54
2023-03-26T20:56:19.597Z,8.53
2023-03-26T20:58:54.762Z,8.50
2023-03-26T21:01:27.780Z,8.77
2023-03-26T21:03:54.767Z,8.89
2023-03-26T21:06:21.344Z,8.97
2023-03-26T21:08:48.246Z,8.94
2023-03-26T21:11:43.656Z,8.89
2023-03-26T21:14:19.604Z,8.83
2023-03-26T21:16:46.737Z,8.67
2023-03-26T21:19:13.850Z,8.21
2023-03-26T21:22:19.865Z,7.89
2023-03-26T21:25:17.110Z,7.66
2023-03-26T21:27:57.238Z,7.69
2023-03-26T21:30:24.346Z,7.84
2023-03-26T21:32:52.244Z,7.81
2023-03-26T21:35:19.664Z,7.85
2023-03-26T21:37:49.737Z,8.01
2023-03-26T21:40:18.221Z,8.03
2023-03-26T21:42:47.387Z,8.00
2023-03-26T21:45:14.936Z,7.97
2023-03-26T21:47:42.282Z,7.99
2023-03-26T21:50:11.527Z,7.98
2023-03-26T21:52:46.801Z,7.84
2023-03-26T21:55:21.021Z,7.84
2023-03-26T21:58:29.246Z,7.79
2023-03-26T22:01:20.095Z,7.71
2023-03-26T22:04:04.699Z,7.72
2023-03-26T22:06:47.977Z,7.73
2023-03-26T22:09:18.434Z,7.66
2023-03-26T22:11:47.406Z,7.67
2023-03-26T22:14:14.270Z,7.66
2023-03-26T22:16:41.630Z,7.68
2023-03-26T22:19:08.708Z,7.70
2023-03-26T22:21:35.854Z,7.63
2023-03-26T22:24:04.664Z,7.60
2023-03-26T22:26:31.517Z,7.67
2023-03-26T22:28:58.795Z,7.54
2023-03-26T22:31:26.496Z,7.52
2023-03-26T22:33:55.051Z,7.60
2023-03-26T22:36:23.731Z,7.57
2023-03-26T22:38:54.197Z,7.59
2023-03-26T22:41:21.739Z,7.60
2023-03-26T22:43:48.635Z,7.50
2023-03-26T22:46:15.295Z,7.43
2023-03-26T22:48:41.942Z,7.49
2023-03-26T22:51:09.179Z,7.48
2023-03-26T22:53:36.527Z,7.39
2023-03-26T22:56:04.207Z,7.34
2023-03-26T22:58:33.381Z,7.36
2023-03-26T23:01:07.972Z,7.24
2023-03-26T23:03:35.933Z,7.26
2023-03-26T23:06:06.250Z,7.18
2023-03-26T23:08:35.017Z,7.24
2023-03-26T23:11:02.302Z,7.24
2023-03-26T23:13:28.880Z,7.24
2023-03-26T23:15:57.103Z,7.34
2023-03-26T23:18:24.386Z,7.39
2023-03-26T23:20:54.939Z,7.26
2023-03-26T23:23:24.136Z,7.23
2023-03-26T23:25:51.941Z,7.15
2023-03-26T23:28:18.753Z,7.18
2023-03-26T23:30:49.784Z,7.08
2023-03-26T23:33:16.388Z,7.05
2023-03-26T23:35:44.219Z,6.92
2023-03-26T23:38:13.019Z,6.92
2023-03-26T23:40:40.817Z,6.99
2023-03-26T23:43:07.426Z,6.83
2023-03-26T23:45:34.076Z,6.83
2023-03-26T23:48:02.485Z,6.90
2023-03-26T23:50:31.417Z,6.89
2023-03-26T23:52:58.767Z,6.90
2023-03-26T23:55:28.219Z,6.89
2023-03-26T23:57:55.551Z,6.88
